sensor_id;sensor_type;location;lat;lon;timestamp;pressure;altitude;pressure_sealevel;temperature;humidity
9774;BME280;4926;42.670;23.316;2023-08-06T00:01:37;93422.44;;;21.61;100.00
9774;BME280;4926;42.670;23.316;2023-08-06T00:04:03;93411.53;;;21.37;100.00
9774;BME280;4926;42.670;23.316;2023-08-06T00:06:30;93472.72;;;20.83;100.00
9774;BME280;4926;42.670;23.316;2023-08-06T00:08:57;93463.78;;;20.76;100.00
9774;BME280;4926;42.670;23.316;2023-08-06T00:11:23;93471.09;;;20.72;100.00
9774;BME280;4926;42.670;23.316;2023-08-06T00:13:51;93462.19;;;20.71;100.00
9774;BME280;4926;42.670;23.316;2023-08-06T00:16:18;93457.50;;;20.65;100.00
9774;BME280;4926;42.670;23.316;2023-08-06T00:18:45;93434.31;;;20.60;100.00
9774;BME280;4926;42.670;23.316;2023-08-06T00:21:11;93436.50;;;20.44;100.00
9774;BME280;4926;42.670;23.316;2023-08-06T00:23:41;93441.78;;;20.27;100.00
9774;BME280;4926;42.670;23.316;2023-08-06T00:26:08;93450.50;;;20.53;100.00
9774;BME280;4926;42.670;23.316;2023-08-06T00:28:35;93455.25;;;20.70;100.00
9774;BME280;4926;42.670;23.316;2023-08-06T00:31:03;93437.19;;;20.85;100.00
9774;BME280;4926;42.670;23.316;2023-08-06T00:33:32;93433.75;;;20.95;100.00
9774;BME280;4926;42.670;23.316;2023-08-06T00:36:01;93422.81;;;20.74;100.00
9774;BME280;4926;42.670;23.316;2023-08-06T00:38:28;93429.41;;;20.76;100.00
9774;BME280;4926;42.670;23.316;2023-08-06T00:40:56;93419.69;;;20.72;100.00
9774;BME280;4926;42.670;23.316;2023-08-06T00:43:28;93420.16;;;20.81;100.00
9774;BME280;4926;42.670;23.316;2023-08-06T00:45:58;93424.13;;;20.97;100.00
9774;BME280;4926;42.670;23.316;2023-08-06T00:48:28;93417.63;;;21.13;100.00
9774;BME280;4926;42.670;23.316;2023-08-06T00:50:55;93418.06;;;21.22;100.00
9774;BME280;4926;42.670;23.316;2023-08-06T00:53:21;93426.22;;;21.29;100.00
9774;BME280;4926;42.670;23.316;2023-08-06T00:55:48;93416.59;;;21.42;100.00
9774;BME280;4926;42.670;23.316;2023-08-06T00:58:21;93409.28;;;21.53;100.00
9774;BME280;4926;42.670;23.316;2023-08-06T01:00:47;93407.34;;;21.57;100.00
9774;BME280;4926;42.670;23.316;2023-08-06T01:03:17;93402.31;;;21.52;100.00
9774;BME280;4926;42.670;23.316;2023-08-06T01:05:45;93399.25;;;21.57;100.00
9774;BME280;4926;42.670;23.316;2023-08-06T01:08:30;93381.34;;;21.35;100.00
9774;BME280;4926;42.670;23.316;2023-08-06T01:11:14;93369.78;;;21.34;100.00
9774;BME280;4926;42.670;23.316;2023-08-06T01:13:47;93380.19;;;21.29;100.00
9774;BME280;4926;42.670;23.316;2023-08-06T01:16:15;93389.88;;;21.37;100.00
9774;BME280;4926;42.670;23.316;2023-08-06T01:18:43;93383.72;;;21.47;100.00
9774;BME280;4926;42.670;23.316;2023-08-06T01:21:15;93375.97;;;21.42;100.00
9774;BME280;4926;42.670;23.316;2023-08-06T01:23:42;93382.97;;;21.57;100.00
9774;BME280;4926;42.670;23.316;2023-08-06T01:26:16;93381.81;;;21.58;100.00
9774;BME280;4926;42.670;23.316;2023-08-06T01:29:03;93370.56;;;21.45;100.00
9774;BME280;4926;42.670;23.316;2023-08-06T01:31:38;93375.19;;;21.31;100.00
9774;BME280;4926;42.670;23.316;2023-08-06T01:34:09;93364.31;;;21.17;100.00
9774;BME280;4926;42.670;23.316;2023-08-06T01:36:40;93356.19;;;21.17;100.00
9774;BME280;4926;42.670;23.316;2023-08-06T01:39:08;93356.97;;;21.24;100.00
9774;BME280;4926;42.670;23.316;2023-08-06T01:41:34;93358.94;;;21.31;100.00
9774;BME280;4926;42.670;23.316;2023-08-06T01:44:07;93368.22;;;21.33;100.00
9774;BME280;4926;42.670;23.316;2023-08-06T01:46:34;93362.38;;;21.28;100.00
9774;BME280;4926;42.670;23.316;2023-08-06T01:49:00;93358.09;;;21.16;100.00
9774;BME280;4926;42.670;23.316;2023-08-06T01:51:27;93357.28;;;21.01;100.00
9774;BME280;4926;42.670;23.316;2023-08-06T01:54:00;93357.22;;;20.94;100.00
9774;BME280;4926;42.670;23.316;2023-08-06T01:56:27;93365.00;;;20.99;100.00
9774;BME280;4926;42.670;23.316;2023-08-06T01:58:53;93355.69;;;20.93;100.00
9774;BME280;4926;42.670;23.316;2023-08-06T02:01:20;93363.38;;;20.88;100.00
9774;BME280;4926;42.670;23.316;2023-08-06T02:03:55;93332.41;;;20.78;100.00
9774;BME280;4926;42.670;23.316;2023-08-06T02:06:27;93354.03;;;20.78;100.00
9774;BME280;4926;42.670;23.316;2023-08-06T02:08:55;93341.25;;;20.68;100.00
9774;BME280;4926;42.670;23.316;2023-08-06T02:11:22;93341.31;;;20.82;100.00
9774;BME280;4926;42.670;23.316;2023-08-06T02:13:48;93338.25;;;20.87;100.00
9774;BME280;4926;42.670;23.316;2023-08-06T02:16:18;93353.66;;;20.76;100.00
9774;BME280;4926;42.670;23.316;2023-08-06T02:18:44;93355.63;;;20.83;100.00
9774;BME280;4926;42.670;23.316;2023-08-06T02:21:11;93373.41;;;20.84;100.00
9774;BME280;4926;42.670;23.316;2023-08-06T02:23:38;93385.00;;;20.88;100.00
9774;BME280;4926;42.670;23.316;2023-08-06T02:26:09;93381.09;;;20.78;100.00
9774;BME280;4926;42.670;23.316;2023-08-06T02:28:35;93374.50;;;20.72;100.00
9774;BME280;4926;42.670;23.316;2023-08-06T02:31:02;93350.16;;;20.69;100.00
9774;BME280;4926;42.670;23.316;2023-08-06T02:33:29;93362.44;;;20.59;100.00
9774;BME280;4926;42.670;23.316;2023-08-06T02:35:59;93352.84;;;20.65;100.00
9774;BME280;4926;42.670;23.316;2023-08-06T02:38:29;93371.84;;;20.79;100.00
9774;BME280;4926;42.670;23.316;2023-08-06T02:40:56;93391.97;;;20.92;100.00
9774;BME280;4926;42.670;23.316;2023-08-06T02:43:24;93403.66;;;21.00;100.00
9774;BME280;4926;42.670;23.316;2023-08-06T02:45:51;93408.97;;;20.89;100.00
9774;BME280;4926;42.670;23.316;2023-08-06T02:48:18;93395.97;;;21.13;100.00
9774;BME280;4926;42.670;23.316;2023-08-06T02:50:47;93376.69;;;21.25;100.00
9774;BME280;4926;42.670;23.316;2023-08-06T02:53:14;93357.41;;;21.40;100.00
9774;BME280;4926;42.670;23.316;2023-08-06T02:55:45;93333.44;;;21.46;100.00
9774;BME280;4926;42.670;23.316;2023-08-06T02:58:13;93319.09;;;21.45;100.00
9774;BME280;4926;42.670;23.316;2023-08-06T03:00:41;93327.25;;;21.66;100.00
9774;BME280;4926;42.670;23.316;2023-08-06T03:03:08;93332.66;;;21.49;100.00
9774;BME280;4926;42.670;23.316;2023-08-06T03:05:35;93352.69;;;21.13;100.00
9774;BME280;4926;42.670;23.316;2023-08-06T03:08:02;93317.16;;;21.28;100.00
9774;BME280;4926;42.670;23.316;2023-08-06T03:10:28;93298.63;;;21.48;100.00
9774;BME280;4926;42.670;23.316;2023-08-06T03:12:58;93323.38;;;21.43;100.00
9774;BME280;4926;42.670;23.316;2023-08-06T03:15:27;93350.38;;;21.15;100.00
9774;BME280;4926;42.670;23.316;2023-08-06T03:17:57;93322.38;;;20.79;100.00
9774;BME280;4926;42.670;23.316;2023-08-06T03:20:27;93315.47;;;20.92;100.00
9774;BME280;4926;42.670;23.316;2023-08-06T03:22:53;93277.69;;;21.10;100.00
9774;BME280;4926;42.670;23.316;2023-08-06T03:25:27;93294.31;;;21.26;100.00
9774;BME280;4926;42.670;23.316;2023-08-06T03:27:56;93315.56;;;21.06;100.00
9774;BME280;4926;42.670;23.316;2023-08-06T03:30:23;93331.72;;;20.92;100.00
9774;BME280;4926;42.670;23.316;2023-08-06T03:32:49;93358.81;;;20.99;100.00
9774;BME280;4926;42.670;23.316;2023-08-06T03:35:17;93369.53;;;20.81;100.00
9774;BME280;4926;42.670;23.316;2023-08-06T03:37:44;93369.47;;;20.67;100.00
9774;BME280;4926;42.670;23.316;2023-08-06T03:40:11;93354.78;;;20.72;100.00
9774;BME280;4926;42.670;23.316;2023-08-06T03:42:38;93344.06;;;20.89;100.00
9774;BME280;4926;42.670;23.316;2023-08-06T03:45:08;93358.81;;;20.99;100.00
9774;BME280;4926;42.670;23.316;2023-08-06T03:47:35;93363.53;;;21.16;100.00
9774;BME280;4926;42.670;23.316;2023-08-06T03:50:06;93350.44;;;21.32;100.00
9774;BME280;4926;42.670;23.316;2023-08-06T03:52:39;93352.69;;;21.13;100.00
9774;BME280;4926;42.670;23.316;2023-08-06T03:55:06;93364.22;;;20.99;100.00
9774;BME280;4926;42.670;23.316;2023-08-06T03:57:33;93378.66;;;20.59;100.00
9774;BME280;4926;42.670;23.316;2023-08-06T04:00:00;93368.22;;;20.54;100.00
9774;BME280;4926;42.670;23.316;2023-08-06T04:02:29;93377.22;;;20.72;100.00
9774;BME280;4926;42.670;23.316;2023-08-06T04:04:56;93382.63;;;20.76;100.00
9774;BME280;4926;42.670;23.316;2023-08-06T04:07:24;93392.75;;;20.89;100.00
9774;BME280;4926;42.670;23.316;2023-08-06T04:09:54;93397.41;;;20.92;100.00
9774;BME280;4926;42.670;23.316;2023-08-06T04:12:21;93391.63;;;20.94;100.00
9774;BME280;4926;42.670;23.316;2023-08-06T04:14:55;93396.72;;;21.02;100.00
9774;BME280;4926;42.670;23.316;2023-08-06T04:17:22;93385.16;;;21.13;100.00
9774;BME280;4926;42.670;23.316;2023-08-06T04:19:50;93382.44;;;21.09;100.00
9774;BME280;4926;42.670;23.316;2023-08-06T04:22:20;93386.59;;;20.96;100.00
9774;BME280;4926;42.670;23.316;2023-08-06T04:24:50;93374.97;;;20.88;100.00
9774;BME280;4926;42.670;23.316;2023-08-06T04:27:21;93368.00;;;20.87;100.00
9774;BME280;4926;42.670;23.316;2023-08-06T04:29:47;93378.78;;;20.80;100.00
9774;BME280;4926;42.670;23.316;2023-08-06T04:32:14;93368.72;;;20.74;100.00
9774;BME280;4926;42.670;23.316;2023-08-06T04:34:44;93371.44;;;20.81;100.00
9774;BME280;4926;42.670;23.316;2023-08-06T04:37:12;93351.41;;;20.92;100.00
9774;BME280;4926;42.670;23.316;2023-08-06T04:39:48;93341.84;;;21.05;100.00
9774;BME280;4926;42.670;23.316;2023-08-06T04:42:14;93339.16;;;21.20;100.00
9774;BME280;4926;42.670;23.316;2023-08-06T04:44:45;93335.69;;;21.23;100.00
9774;BME280;4926;42.670;23.316;2023-08-06T04:47:14;93328.75;;;21.22;100.00
9774;BME280;4926;42.670;23.316;2023-08-06T04:49:41;93332.63;;;21.35;100.00
9774;BME280;4926;42.670;23.316;2023-08-06T04:52:08;93317.16;;;21.35;100.00
9774;BME280;4926;42.670;23.316;2023-08-06T04:54:41;93308.28;;;21.42;100.00
9774;BME280;4926;42.670;23.316;2023-08-06T04:57:12;93294.75;;;21.49;100.00
9774;BME280;4926;42.670;23.316;2023-08-06T04:59:39;93302.13;;;21.52;100.00
9774;BME280;4926;42.670;23.316;2023-08-06T05:02:07;93290.91;;;21.53;100.00
9774;BME280;4926;42.670;23.316;2023-08-06T05:04:34;93297.06;;;21.54;100.00
9774;BME280;4926;42.670;23.316;2023-08-06T05:07:00;93304.81;;;21.38;100.00
9774;BME280;4926;42.670;23.316;2023-08-06T05:09:27;93307.13;;;21.43;100.00
9774;BME280;4926;42.670;23.316;2023-08-06T05:11:54;93309.47;;;21.58;100.00
9774;BME280;4926;42.670;23.316;2023-08-06T05:14:23;93313.69;;;21.49;100.00
9774;BME280;4926;42.670;23.316;2023-08-06T05:16:50;93310.25;;;21.45;100.00
9774;BME280;4926;42.670;23.316;2023-08-06T05:19:18;93309.84;;;21.53;100.00
9774;BME280;4926;42.670;23.316;2023-08-06T05:21:45;93310.25;;;21.52;100.00
9774;BME280;4926;42.670;23.316;2023-08-06T05:24:11;93318.75;;;21.61;100.00
9774;BME280;4926;42.670;23.316;2023-08-06T05:26:38;93317.19;;;21.56;100.00
9774;BME280;4926;42.670;23.316;2023-08-06T05:29:05;93312.56;;;21.60;100.00
9774;BME280;4926;42.670;23.316;2023-08-06T05:31:34;93318.00;;;21.60;100.00
9774;BME280;4926;42.670;23.316;2023-08-06T05:34:02;93309.06;;;21.49;100.00
9774;BME280;4926;42.670;23.316;2023-08-06T05:36:30;93310.25;;;21.59;100.00
9774;BME280;4926;42.670;23.316;2023-08-06T05:38:57;93311.06;;;21.80;100.00
9774;BME280;4926;42.670;23.316;2023-08-06T05:41:24;93305.63;;;21.91;100.00
9774;BME280;4926;42.670;23.316;2023-08-06T05:43:50;93305.25;;;21.96;100.00
9774;BME280;4926;42.670;23.316;2023-08-06T05:46:17;93301.00;;;22.09;100.00
9774;BME280;4926;42.670;23.316;2023-08-06T05:48:44;93297.88;;;22.17;100.00
9774;BME280;4926;42.670;23.316;2023-08-06T05:51:10;93306.00;;;22.21;100.00
9774;BME280;4926;42.670;23.316;2023-08-06T05:53:40;93317.25;;;22.16;100.00
9774;BME280;4926;42.670;23.316;2023-08-06T05:56:06;93315.69;;;22.11;100.00
9774;BME280;4926;42.670;23.316;2023-08-06T05:58:33;93319.97;;;22.09;100.00
9774;BME280;4926;42.670;23.316;2023-08-06T06:01:03;93324.22;;;22.10;100.00
9774;BME280;4926;42.670;23.316;2023-08-06T06:03:29;93333.50;;;22.12;100.00
9774;BME280;4926;42.670;23.316;2023-08-06T06:05:58;93328.88;;;22.09;100.00
9774;BME280;4926;42.670;23.316;2023-08-06T06:08:30;93335.84;;;22.10;100.00
9774;BME280;4926;42.670;23.316;2023-08-06T06:10:58;93326.53;;;21.97;100.00
9774;BME280;4926;42.670;23.316;2023-08-06T06:13:27;93333.13;;;22.07;100.00
9774;BME280;4926;42.670;23.316;2023-08-06T06:15:54;93335.84;;;22.07;100.00
9774;BME280;4926;42.670;23.316;2023-08-06T06:18:21;93348.22;;;22.08;100.00
9774;BME280;4926;42.670;23.316;2023-08-06T06:20:48;93355.59;;;21.97;100.00
9774;BME280;4926;42.670;23.316;2023-08-06T06:23:14;93355.97;;;21.92;100.00
9774;BME280;4926;42.670;23.316;2023-08-06T06:25:42;93358.31;;;22.04;100.00
9774;BME280;4926;42.670;23.316;2023-08-06T06:28:10;93363.34;;;22.23;100.00
9774;BME280;4926;42.670;23.316;2023-08-06T06:30:37;93366.03;;;22.34;100.00
9774;BME280;4926;42.670;23.316;2023-08-06T06:33:04;93371.06;;;22.42;100.00
9774;BME280;4926;42.670;23.316;2023-08-06T06:35:30;93376.09;;;22.51;100.00
9774;BME280;4926;42.670;23.316;2023-08-06T06:37:57;93388.09;;;22.53;100.00
9774;BME280;4926;42.670;23.316;2023-08-06T06:40:24;93380.75;;;22.57;100.00
9774;BME280;4926;42.670;23.316;2023-08-06T06:42:50;93396.22;;;22.71;100.00
9774;BME280;4926;42.670;23.316;2023-08-06T06:45:19;93392.38;;;22.68;100.00
9774;BME280;4926;42.670;23.316;2023-08-06T06:47:45;93394.66;;;22.80;100.00
9774;BME280;4926;42.670;23.316;2023-08-06T06:50:12;93394.63;;;22.94;99.30
9774;BME280;4926;42.670;23.316;2023-08-06T06:52:39;93396.19;;;22.81;100.00
9774;BME280;4926;42.670;23.316;2023-08-06T06:55:06;93406.31;;;22.77;100.00
9774;BME280;4926;42.670;23.316;2023-08-06T06:57:33;93416.38;;;22.73;97.63
9774;BME280;4926;42.670;23.316;2023-08-06T06:59:59;93430.34;;;22.61;96.22
9774;BME280;4926;42.670;23.316;2023-08-06T07:02:27;93429.56;;;22.61;96.09
9774;BME280;4926;42.670;23.316;2023-08-06T07:04:54;93420.25;;;22.79;94.10
9774;BME280;4926;42.670;23.316;2023-08-06T07:07:21;93429.09;;;23.04;94.30
9774;BME280;4926;42.670;23.316;2023-08-06T07:09:47;93416.25;;;23.30;91.26
9774;BME280;4926;42.670;23.316;2023-08-06T07:12:14;93422.41;;;23.48;86.36
9774;BME280;4926;42.670;23.316;2023-08-06T07:14:41;93420.81;;;23.54;82.77
9774;BME280;4926;42.670;23.316;2023-08-06T07:17:07;93424.69;;;23.56;81.54
9774;BME280;4926;42.670;23.316;2023-08-06T07:19:36;93422.41;;;23.51;80.59
9774;BME280;4926;42.670;23.316;2023-08-06T07:22:03;93427.31;;;23.74;80.70
9774;BME280;4926;42.670;23.316;2023-08-06T07:24:29;93424.06;;;24.03;79.54
9774;BME280;4926;42.670;23.316;2023-08-06T07:26:56;93415.84;;;24.14;76.69
9774;BME280;4926;42.670;23.316;2023-08-06T07:29:25;93421.69;;;24.12;75.28
9774;BME280;4926;42.670;23.316;2023-08-06T07:31:54;93413.69;;;24.39;72.95
9774;BME280;4926;42.670;23.316;2023-08-06T07:34:21;93419.44;;;24.52;72.63
9774;BME280;4926;42.670;23.316;2023-08-06T07:36:52;93400.78;;;24.50;69.12
9774;BME280;4926;42.670;23.316;2023-08-06T07:39:19;93407.09;;;24.84;68.59
9774;BME280;4926;42.670;23.316;2023-08-06T07:41:47;93400.41;;;24.92;67.46
9774;BME280;4926;42.670;23.316;2023-08-06T07:44:14;93395.34;;;24.94;66.61
9774;BME280;4926;42.670;23.316;2023-08-06T07:46:41;93405.13;;;24.88;66.63
9774;BME280;4926;42.670;23.316;2023-08-06T07:49:09;93403.69;;;24.77;67.24
9774;BME280;4926;42.670;23.316;2023-08-06T07:51:36;93397.91;;;25.08;66.98
9774;BME280;4926;42.670;23.316;2023-08-06T07:54:05;93390.66;;;25.28;65.76
9774;BME280;4926;42.670;23.316;2023-08-06T07:56:32;93392.81;;;25.48;65.25
9774;BME280;4926;42.670;23.316;2023-08-06T07:58:59;93391.22;;;25.50;64.05
9774;BME280;4926;42.670;23.316;2023-08-06T08:01:25;93387.22;;;25.58;64.60
9774;BME280;4926;42.670;23.316;2023-08-06T08:03:52;93383.94;;;25.70;64.89
9774;BME280;4926;42.670;23.316;2023-08-06T08:06:21;93393.25;;;26.03;63.70
9774;BME280;4926;42.670;23.316;2023-08-06T08:08:48;93372.91;;;26.34;60.53
9774;BME280;4926;42.670;23.316;2023-08-06T08:11:16;93370.53;;;26.36;60.38
9774;BME280;4926;42.670;23.316;2023-08-06T08:13:43;93367.56;;;26.50;60.44
9774;BME280;4926;42.670;23.316;2023-08-06T08:16:10;93379.69;;;26.72;58.88
9774;BME280;4926;42.670;23.316;2023-08-06T08:18:37;93373.38;;;26.75;58.24
9774;BME280;4926;42.670;23.316;2023-08-06T08:21:04;93365.03;;;26.63;57.24
9774;BME280;4926;42.670;23.316;2023-08-06T08:23:30;93373.41;;;26.52;58.10
9774;BME280;4926;42.670;23.316;2023-08-06T08:25:58;93372.59;;;26.28;58.24
9774;BME280;4926;42.670;23.316;2023-08-06T08:28:28;93377.41;;;26.44;57.68
9774;BME280;4926;42.670;23.316;2023-08-06T08:30:55;93379.91;;;26.58;57.31
9774;BME280;4926;42.670;23.316;2023-08-06T08:33:22;93369.41;;;26.57;57.25
9774;BME280;4926;42.670;23.316;2023-08-06T08:35:49;93388.50;;;26.57;60.76
9774;BME280;4926;42.670;23.316;2023-08-06T08:38:17;93388.00;;;26.88;61.54
9774;BME280;4926;42.670;23.316;2023-08-06T08:40:46;93364.28;;;27.24;58.76
9774;BME280;4926;42.670;23.316;2023-08-06T08:43:14;93377.94;;;27.24;58.66
9774;BME280;4926;42.670;23.316;2023-08-06T08:45:43;93382.34;;;26.99;59.23
9774;BME280;4926;42.670;23.316;2023-08-06T08:48:12;93375.19;;;26.85;59.54
9774;BME280;4926;42.670;23.316;2023-08-06T08:50:39;93380.84;;;26.25;61.72
9774;BME280;4926;42.670;23.316;2023-08-06T08:53:06;93387.63;;;25.87;63.35
9774;BME280;4926;42.670;23.316;2023-08-06T08:55:35;93385.44;;;25.75;63.94
9774;BME280;4926;42.670;23.316;2023-08-06T08:58:03;93386.88;;;25.83;65.07
9774;BME280;4926;42.670;23.316;2023-08-06T09:00:32;93377.53;;;25.84;65.41
9774;BME280;4926;42.670;23.316;2023-08-06T09:03:02;93365.44;;;25.85;61.57
9774;BME280;4926;42.670;23.316;2023-08-06T09:05:30;93375.38;;;25.72;62.98
9774;BME280;4926;42.670;23.316;2023-08-06T09:08:02;93371.28;;;25.57;64.15
9774;BME280;4926;42.670;23.316;2023-08-06T09:10:29;93376.41;;;25.51;65.02
9774;BME280;4926;42.670;23.316;2023-08-06T09:12:59;93377.38;;;25.38;65.63
9774;BME280;4926;42.670;23.316;2023-08-06T09:15:29;93375.84;;;25.33;65.69
9774;BME280;4926;42.670;23.316;2023-08-06T09:17:59;93368.91;;;25.59;65.97
9774;BME280;4926;42.670;23.316;2023-08-06T09:20:27;93359.22;;;26.11;63.14
9774;BME280;4926;42.670;23.316;2023-08-06T09:22:53;93350.75;;;26.02;61.25
9774;BME280;4926;42.670;23.316;2023-08-06T09:25:21;93352.38;;;25.73;62.25
9774;BME280;4926;42.670;23.316;2023-08-06T09:27:50;93347.66;;;25.47;61.27
9774;BME280;4926;42.670;23.316;2023-08-06T09:30:29;93348.13;;;25.42;61.90
9774;BME280;4926;42.670;23.316;2023-08-06T09:32:56;93346.56;;;25.71;59.73
9774;BME280;4926;42.670;23.316;2023-08-06T09:35:23;93317.75;;;25.70;58.69
9774;BME280;4926;42.670;23.316;2023-08-06T09:37:51;93336.47;;;26.21;58.42
9774;BME280;4926;42.670;23.316;2023-08-06T09:40:29;93298.91;;;26.75;52.96
9774;BME280;4926;42.670;23.316;2023-08-06T09:42:56;93292.53;;;27.20;51.92
9774;BME280;4926;42.670;23.316;2023-08-06T09:45:28;93275.22;;;27.46;51.82
9774;BME280;4926;42.670;23.316;2023-08-06T09:47:56;93282.59;;;27.30;51.13
9774;BME280;4926;42.670;23.316;2023-08-06T09:50:29;93281.75;;;27.85;51.11
9774;BME280;4926;42.670;23.316;2023-08-06T09:52:58;93289.63;;;27.83;50.14
9774;BME280;4926;42.670;23.316;2023-08-06T09:55:25;93298.03;;;27.92;50.73
9774;BME280;4926;42.670;23.316;2023-08-06T09:57:53;93287.16;;;28.20;50.33
9774;BME280;4926;42.670;23.316;2023-08-06T10:00:20;93285.81;;;28.12;49.76
9774;BME280;4926;42.670;23.316;2023-08-06T10:02:47;93287.56;;;27.71;49.82
9774;BME280;4926;42.670;23.316;2023-08-06T10:05:20;93283.91;;;27.41;49.14
9774;BME280;4926;42.670;23.316;2023-08-06T10:07:50;93301.34;;;27.08;50.44
9774;BME280;4926;42.670;23.316;2023-08-06T10:10:19;93315.59;;;26.57;51.87
9774;BME280;4926;42.670;23.316;2023-08-06T10:12:49;93323.13;;;26.26;52.92
9774;BME280;4926;42.670;23.316;2023-08-06T10:15:19;93321.97;;;26.01;53.65
9774;BME280;4926;42.670;23.316;2023-08-06T10:17:47;93324.38;;;25.95;54.06
9774;BME280;4926;42.670;23.316;2023-08-06T10:20:17;93328.69;;;26.19;52.89
9774;BME280;4926;42.670;23.316;2023-08-06T10:22:59;93307.66;;;27.05;51.13
9774;BME280;4926;42.670;23.316;2023-08-06T10:25:30;93303.41;;;27.24;50.00
9774;BME280;4926;42.670;23.316;2023-08-06T10:27:57;93292.75;;;27.10;48.66
9774;BME280;4926;42.670;23.316;2023-08-06T10:30:26;93301.97;;;26.77;49.70
9774;BME280;4926;42.670;23.316;2023-08-06T10:32:54;93296.25;;;26.71;50.05
9774;BME280;4926;42.670;23.316;2023-08-06T10:35:35;93319.25;;;26.70;50.85
9774;BME280;4926;42.670;23.316;2023-08-06T10:38:07;93324.69;;;26.93;51.22
9774;BME280;4926;42.670;23.316;2023-08-06T10:40:36;93331.97;;;27.00;52.23
9774;BME280;4926;42.670;23.316;2023-08-06T10:43:05;93347.03;;;26.65;54.00
9774;BME280;4926;42.670;23.316;2023-08-06T10:45:35;93355.91;;;26.23;55.44
9774;BME280;4926;42.670;23.316;2023-08-06T10:48:03;93367.22;;;25.95;56.94
9774;BME280;4926;42.670;23.316;2023-08-06T10:50:33;93381.16;;;26.04;57.16
9774;BME280;4926;42.670;23.316;2023-08-06T10:53:05;93379.63;;;25.73;56.58
9774;BME280;4926;42.670;23.316;2023-08-06T10:55:35;93373.91;;;25.64;57.09
9774;BME280;4926;42.670;23.316;2023-08-06T10:58:03;93382.44;;;25.66;57.90
9774;BME280;4926;42.670;23.316;2023-08-06T11:00:30;93384.94;;;25.53;58.07
9774;BME280;4926;42.670;23.316;2023-08-06T11:02:57;93395.06;;;25.53;58.53
9774;BME280;4926;42.670;23.316;2023-08-06T11:05:25;93394.09;;;25.70;58.46
9774;BME280;4926;42.670;23.316;2023-08-06T11:07:59;93394.19;;;25.63;58.56
9774;BME280;4926;42.670;23.316;2023-08-06T11:10:26;93390.94;;;25.71;58.44
9774;BME280;4926;42.670;23.316;2023-08-06T11:12:56;93393.25;;;25.73;58.28
9774;BME280;4926;42.670;23.316;2023-08-06T11:15:33;93383.97;;;25.67;58.05
9774;BME280;4926;42.670;23.316;2023-08-06T11:17:59;93387.75;;;25.76;58.46
9774;BME280;4926;42.670;23.316;2023-08-06T11:20:28;93409.34;;;25.64;59.91
9774;BME280;4926;42.670;23.316;2023-08-06T11:22:54;93439.06;;;25.17;57.78
9774;BME280;4926;42.670;23.316;2023-08-06T11:25:21;93463.22;;;24.68;66.07
9774;BME280;4926;42.670;23.316;2023-08-06T11:27:51;93469.28;;;24.38;68.90
9774;BME280;4926;42.670;23.316;2023-08-06T11:30:19;93466.59;;;24.35;70.98
9774;BME280;4926;42.670;23.316;2023-08-06T11:32:49;93459.28;;;24.24;70.77
9774;BME280;4926;42.670;23.316;2023-08-06T11:35:16;93454.38;;;24.02;70.06
9774;BME280;4926;42.670;23.316;2023-08-06T11:37:52;93461.69;;;24.12;71.08
9774;BME280;4926;42.670;23.316;2023-08-06T11:40:20;93456.94;;;24.23;71.02
9774;BME280;4926;42.670;23.316;2023-08-06T11:42:47;93451.56;;;24.67;70.54
9774;BME280;4926;42.670;23.316;2023-08-06T11:45:14;93445.19;;;25.25;71.90
9774;BME280;4926;42.670;23.316;2023-08-06T11:47:49;93427.69;;;25.60;66.46
9774;BME280;4926;42.670;23.316;2023-08-06T11:50:22;93422.06;;;25.74;64.93
9774;BME280;4926;42.670;23.316;2023-08-06T11:52:52;93431.44;;;26.29;65.07
9774;BME280;4926;42.670;23.316;2023-08-06T11:55:23;93418.50;;;27.06;65.49
9774;BME280;4926;42.670;23.316;2023-08-06T11:57:50;93413.75;;;27.89;65.83
9774;BME280;4926;42.670;23.316;2023-08-06T12:00:17;93397.97;;;28.48;60.15
9774;BME280;4926;42.670;23.316;2023-08-06T12:02:46;93385.25;;;29.18;57.67
9774;BME280;4926;42.670;23.316;2023-08-06T12:05:18;93360.84;;;29.65;54.75
9774;BME280;4926;42.670;23.316;2023-08-06T12:07:47;93342.34;;;29.94;52.68
9774;BME280;4926;42.670;23.316;2023-08-06T12:10:22;93361.69;;;30.41;51.69
9774;BME280;4926;42.670;23.316;2023-08-06T12:12:53;93322.59;;;30.37;46.45
9774;BME280;4926;42.670;23.316;2023-08-06T12:15:26;93328.50;;;30.48;47.59
9774;BME280;4926;42.670;23.316;2023-08-06T12:17:54;93317.63;;;30.44;46.79
9774;BME280;4926;42.670;23.316;2023-08-06T12:20:23;93309.19;;;29.76;46.64
9774;BME280;4926;42.670;23.316;2023-08-06T12:22:51;93314.66;;;29.22;48.78
9774;BME280;4926;42.670;23.316;2023-08-06T12:25:18;93322.41;;;29.11;48.60
9774;BME280;4926;42.670;23.316;2023-08-06T12:27:46;93333.63;;;28.72;49.53
9774;BME280;4926;42.670;23.316;2023-08-06T12:30:13;93342.09;;;28.45;50.54
9774;BME280;4926;42.670;23.316;2023-08-06T12:32:41;93337.91;;;28.41;50.56
9774;BME280;4926;42.670;23.316;2023-08-06T12:35:12;93336.97;;;28.31;49.73
9774;BME280;4926;42.670;23.316;2023-08-06T12:37:57;93327.06;;;27.86;49.97
9774;BME280;4926;42.670;23.316;2023-08-06T12:40:25;93341.06;;;27.72;49.80
9774;BME280;4926;42.670;23.316;2023-08-06T12:42:54;93341.84;;;27.52;51.04
9774;BME280;4926;42.670;23.316;2023-08-06T12:45:29;93345.28;;;27.57;51.47
9774;BME280;4926;42.670;23.316;2023-08-06T12:47:56;93335.69;;;27.48;51.31
9774;BME280;4926;42.670;23.316;2023-08-06T12:50:24;93340.19;;;27.59;51.20
9774;BME280;4926;42.670;23.316;2023-08-06T12:52:50;93338.69;;;27.54;50.72
9774;BME280;4926;42.670;23.316;2023-08-06T12:55:17;93340.41;;;27.48;50.99
9774;BME280;4926;42.670;23.316;2023-08-06T12:57:44;93346.41;;;27.59;51.68
9774;BME280;4926;42.670;23.316;2023-08-06T13:00:11;93343.75;;;27.56;51.47
9774;BME280;4926;42.670;23.316;2023-08-06T13:02:38;93333.84;;;27.62;52.03
9774;BME280;4926;42.670;23.316;2023-08-06T13:05:04;93339.53;;;27.71;50.58
9774;BME280;4926;42.670;23.316;2023-08-06T13:07:33;93340.63;;;27.37;51.38
9774;BME280;4926;42.670;23.316;2023-08-06T13:10:00;93344.53;;;27.36;51.80
9774;BME280;4926;42.670;23.316;2023-08-06T13:12:27;93339.41;;;27.38;52.49